Map

Track Data

SID SEASON NUMBER BASIN SUBBASIN NAME ISO_TIME NATURE LAT LON WMO_WIND WMO_PRES WMO_AGENCY TRACK_TYPE DIST2LAND LANDFALL IFLAG USA_AGENCY USA_ATCF_ID USA_LAT USA_LON USA_RECORD USA_STATUS USA_WIND USA_PRES USA_SSHS USA_R34_NE USA_R34_SE USA_R34_SW USA_R34_NW USA_R50_NE USA_R50_SE USA_R50_SW USA_R50_NW USA_R64_NE USA_R64_SE USA_R64_SW USA_R64_NW USA_POCI USA_ROCI USA_RMW USA_EYE TOKYO_LAT TOKYO_LON TOKYO_GRADE TOKYO_WIND TOKYO_PRES TOKYO_R50_DIR TOKYO_R50_LONG TOKYO_R50_SHORT TOKYO_R30_DIR TOKYO_R30_LONG TOKYO_R30_SHORT TOKYO_LAND CMA_LAT CMA_LON CMA_CAT CMA_WIND CMA_PRES HKO_LAT HKO_LON HKO_CAT HKO_WIND HKO_PRES NEWDELHI_LAT NEWDELHI_LON NEWDELHI_GRADE NEWDELHI_WIND NEWDELHI_PRES NEWDELHI_CI NEWDELHI_DP NEWDELHI_POCI REUNION_LAT REUNION_LON REUNION_TYPE REUNION_WIND REUNION_PRES REUNION_TNUM REUNION_CI REUNION_RMW REUNION_R34_NE REUNION_R34_SE REUNION_R34_SW REUNION_R34_NW REUNION_R50_NE REUNION_R50_SE REUNION_R50_SW REUNION_R50_NW REUNION_R64_NE REUNION_R64_SE REUNION_R64_SW REUNION_R64_NW BOM_LAT BOM_LON BOM_TYPE BOM_WIND BOM_PRES BOM_TNUM BOM_CI BOM_RMW BOM_R34_NE BOM_R34_SE BOM_R34_SW BOM_R34_NW BOM_R50_NE BOM_R50_SE BOM_R50_SW BOM_R50_NW BOM_R64_NE BOM_R64_SE BOM_R64_SW BOM_R64_NW BOM_ROCI BOM_POCI BOM_EYE BOM_POS_METHOD BOM_PRES_METHOD NADI_LAT NADI_LON NADI_CAT NADI_WIND NADI_PRES WELLINGTON_LAT WELLINGTON_LON WELLINGTON_WIND WELLINGTON_PRES DS824_LAT DS824_LON DS824_STAGE DS824_WIND DS824_PRES TD9636_LAT TD9636_LON TD9636_STAGE TD9636_WIND TD9636_PRES TD9635_LAT TD9635_LON TD9635_WIND TD9635_PRES TD9635_ROCI NEUMANN_LAT NEUMANN_LON NEUMANN_CLASS NEUMANN_WIND NEUMANN_PRES MLC_LAT MLC_LON MLC_CLASS MLC_WIND MLC_PRES USA_GUST BOM_GUST BOM_GUST_PER REUNION_GUST REUNION_GUST_PER USA_SEAHGT USA_SEARAD_NE USA_SEARAD_SE USA_SEARAD_SW USA_SEARAD_NW STORM_SPEED STORM_DIR
1939228N21089 1939 52 NI BB NOT_NAMED 1939-08-16 00:00:00 TS 21.3000 88.7000 main 39 22 _________O____ -1 21.3000 88.7000 TC 30 4 300
1939228N21089 1939 52 NI BB NOT_NAMED 1939-08-16 03:00:00 TS 21.4067 88.5018 main 22 11 _________PO___ -1 21.4601 88.4026 TC 30 21.3000 88.7000 1 5 297
1939228N21089 1939 52 NI BB NOT_NAMED 1939-08-16 06:00:00 TS 21.5333 88.2164 main 11 0 _________OP___ -1 21.6000 88.1000 TC 30 21.4333 88.3911 1 6 294
1939228N21089 1939 52 NI BB NOT_NAMED 1939-08-16 09:00:00 TS 21.6456 87.9180 main 15 0 _________PP___ -1 21.7075 87.7924 TC 30 21.5631 88.0855 1 6 292
1939228N21089 1939 52 NI BB NOT_NAMED 1939-08-16 12:00:00 TS 21.7431 87.6436 main 0 0 _________OP___ -1 21.8000 87.5000 TC 30 21.6863 87.7871 1 5 292
1939228N21089 1939 52 NI BB NOT_NAMED 1939-08-16 15:00:00 TS 21.8537 87.3750 main 0 0 _________PO___ -1 21.9074 87.2500 TC 30 21.8000 87.5000 1 5 293
1939228N21089 1939 52 NI BB NOT_NAMED 1939-08-16 18:00:00 TS 21.9506 87.1129 main 0 0 _________OP___ -1 22.0000 87.0000 TC 30 21.9013 87.2258 1 5 289
1939228N21089 1939 52 NI BB NOT_NAMED 1939-08-16 21:00:00 TS 22.0260 86.8325 main 0 0 _________PP___ -1 22.0650 86.7075 TC 30 21.9871 86.9574 1 5 283
1939228N21089 1939 52 NI BB NOT_NAMED 1939-08-17 00:00:00 TS 22.0772 86.5426 main 0 0 _________OP___ -1 22.1000 86.4000 TC 30 22.0544 86.6853 1 5 278
1939228N21089 1939 52 NI BB NOT_NAMED 1939-08-17 03:00:00 TS 22.1037 86.2537 main 0 0 _________PO___ -1 22.1074 86.1075 TC 30 22.1000 86.4000 1 6 273
1939228N21089 1939 52 NI BB NOT_NAMED 1939-08-17 06:00:00 TS 22.1108 85.9446 main 0 0 _________OP___ -1 22.1000 85.8000 TC 30 22.1215 86.0892 1 6 271
1939228N21089 1939 52 NI BB NOT_NAMED 1939-08-17 09:00:00 TS 22.1112 85.6111 main 0 0 _________PP___ -1 22.1000 85.4575 TC 30 22.1224 85.7647 1 6 270
1939228N21089 1939 52 NI BB NOT_NAMED 1939-08-17 12:00:00 TS 22.1061 85.2665 main 0 0 _________OP___ -1 22.1000 85.1000 TC 30 22.1121 85.4329 1 6 269
1939228N21089 1939 52 NI BB NOT_NAMED 1939-08-17 15:00:00 TS 22.1000 84.9212 main 0 0 _________PO___ -1 22.1000 84.7425 TC 30 22.1000 85.1000 1 6 269
1939228N21089 1939 52 NI BB NOT_NAMED 1939-08-17 18:00:00 TS 22.1000 84.5773 main 0 0 _________OP___ -1 22.1000 84.4000 TC 30 22.1001 84.7547 1 6 270
1939228N21089 1939 52 NI BB NOT_NAMED 1939-08-17 21:00:00 TS 22.1001 84.2450 main 0 0 _________PP___ -1 22.1000 84.0775 TC 30 22.1001 84.4125 1 6 270
1939228N21089 1939 52 NI BB NOT_NAMED 1939-08-18 00:00:00 TS 22.1001 83.9445 main 0 0 _________OP___ -1 22.1000 83.8000 TC 30 22.1001 84.0891 1 5 270
1939228N21089 1939 52 NI BB NOT_NAMED 1939-08-18 03:00:00 TS 22.1000 83.6925 main 0 0 _________PO___ -1 22.0999 83.5850 TC 30 22.1000 83.8000 1 4 270
1939228N21089 1939 52 NI BB NOT_NAMED 1939-08-18 06:00:00 TS 22.0978 83.4780 main 0 0 _________OP___ -1 22.1000 83.4000 TC 30 22.0956 83.5559 1 4 269
1939228N21089 1939 52 NI BB NOT_NAMED 1939-08-18 09:00:00 TS 22.0961 83.2700 main 0 0 _________PP___ -1 22.1000 83.1925 TC 30 22.0922 83.3475 1 4 270
1939228N21089 1939 52 NI BB NOT_NAMED 1939-08-18 12:00:00 TS 22.0963 83.0826 main 0 0 _________OP___ -1 22.1000 83.0000 TC 30 22.0926 83.1653 1 3 270
1939228N21089 1939 52 NI BB NOT_NAMED 1939-08-18 15:00:00 TS 22.0962 82.9212 main 0 0 _________PO___ -1 22.0925 82.8425 TC 30 22.1000 83.0000 1 3 272
1939228N21089 1939 52 NI BB NOT_NAMED 1939-08-18 18:00:00 TS 22.1047 82.7739 main 0 0 _________OP___ -1 22.1000 82.7000 TC 30 22.1095 82.8477 1 3 278
1939228N21089 1939 52 NI BB NOT_NAMED 1939-08-18 21:00:00 TS 22.1348 82.6362 main 0 0 _________PP___ -1 22.1424 82.5650 TC 30 22.1272 82.7074 1 3 285
1939228N21089 1939 52 NI BB NOT_NAMED 1939-08-19 00:00:00 TS 22.1782 82.4817 main 0 0 _________OP___ -1 22.2000 82.4000 TC 30 22.1563 82.5633 1 3 285
1939228N21089 1939 52 NI BB NOT_NAMED 1939-08-19 03:00:00 TS 22.2213 82.2787 main 0 0 _________PO___ -1 22.2426 82.1575 TC 30 22.2000 82.4000 1 4 284
1939228N21089 1939 52 NI BB NOT_NAMED 1939-08-19 06:00:00 TS 22.2742 82.0523 main 0 0 _________OP___ -1 22.3000 81.9000 TC 30 22.2484 82.2046 1 4 288
1939228N21089 1939 52 NI BB NOT_NAMED 1939-08-19 09:00:00 TS 22.3486 81.8473 main 0 0 _________PP___ -1 22.3849 81.7074 TC 30 22.3124 81.9873 1 4 294
1939228N21089 1939 52 NI BB NOT_NAMED 1939-08-19 12:00:00 TS 22.4476 81.6257 main 0 0 _________OP___ -1 22.5000 81.5000 TC 30 22.3952 81.7513 1 5 296
1939228N21089 1939 52 NI BB NOT_NAMED 1939-08-19 15:00:00 TS 22.5713 81.3538 main 0 0 _________PO___ -1 22.6426 81.2075 TC 30 22.5000 81.5000 1 6 297
1939228N21089 1939 52 NI BB NOT_NAMED 1939-08-19 18:00:00 TS 22.7019 81.0922 main 0 0 _________OP___ -1 22.8000 80.9000 TC 30 22.6283 81.2363 1 6 300
1939228N21089 1939 52 NI BB NOT_NAMED 1939-08-19 21:00:00 TS 22.8462 80.8319 main 0 0 _________PP___ -1 22.9525 80.6350 TC 30 22.7754 80.9632 1 5 302
1939228N21089 1939 52 NI BB NOT_NAMED 1939-08-20 00:00:00 TS 22.9898 80.5890 main 0 0 _________OP___ -1 23.1000 80.4000 TC 30 22.9348 80.6834 1 5 303
1939228N21089 1939 52 NI BB NOT_NAMED 1939-08-20 03:00:00 NR 23.1000 80.4000 main 0 __________O___ -1 TC 23.1000 80.4000 1 4 302

About IBTrACS Database

This database is a web-friendly format of International Best Track Archive for Climate Stewardship (IBTrACS), a global best track data archive curated by NOAA dating back to 1842.

Updated: 2021-10-08